Time;durP1;ratioP1;P1;durP2;ratioP2;P2;SDS_P1;SDS_P2;PMS_P1;PMS_P2;Temp;Humidity;BMP_temperature;BMP_pressure;BME280_temperature;BME280_humidity;BME280_pressure;Samples;Min_cycle;Max_cycle;Signal;HPM_P1;HPM_P2
2024/04/02 00:01:53;;;;;;;10.77;4.70;;;;;;;;;;4983078;28;20045;-75
2024/04/02 00:04:59;;;;;;;4.20;3.28;;;;;;;;;;4937498;28;20050;-75
2024/04/02 00:07:46;;;;;;;3.95;3.15;;;;;;;;;;4960535;28;20490;-74
2024/04/02 00:10:20;;;;;;;3.67;2.53;;;;;;;;;;4944123;28;20078;-74
2024/04/02 00:13:12;;;;;;;5.65;3.63;;;;;;;;;;4958932;28;20053;-74
2024/04/02 00:16:02;;;;;;;4.18;3.78;;;;;;;;;;4936886;28;20042;-74
2024/04/02 00:18:44;;;;;;;7.72;5.72;;;;;;;;;;4951148;28;20050;-75
2024/04/02 00:21:20;;;;;;;8.63;4.50;;;;;;;;;;4928645;28;20153;-74
2024/04/02 00:24:15;;;;;;;5.18;4.25;;;;;;;;;;4948413;28;20463;-75
2024/04/02 00:26:54;;;;;;;4.38;3.03;;;;;;;;;;4959321;28;20098;-74
2024/04/02 00:29:50;;;;;;;3.08;2.47;;;;;;;;;;4935835;28;20170;-75
2024/04/02 00:32:40;;;;;;;8.85;3.20;;;;;;;;;;4934382;28;20043;-74
2024/04/02 00:35:10;;;;;;;3.47;2.67;;;;;;;;;;4936738;28;20043;-75
2024/04/02 00:38:24;;;;;;;5.43;3.10;;;;;;;;;;4915733;29;20039;-74
2024/04/02 00:41:05;;;;;;;5.40;4.40;;;;;;;;;;4935854;28;20050;-73
2024/04/02 00:43:42;;;;;;;12.95;11.63;;;;;;;;;;4939517;28;20043;-74
2024/04/02 00:46:33;;;;;;;4.25;3.03;;;;;;;;;;4934576;28;20780;-74
2024/04/02 00:49:52;;;;;;;2.58;2.22;;;;;;;;;;4947301;28;20053;-76
2024/04/02 00:52:41;;;;;;;37.00;7.30;;;;;;;;;;4944422;28;20039;-74
2024/04/02 00:55:23;;;;;;;8.98;3.35;;;;;;;;;;4939226;28;20078;-75
2024/04/02 00:57:53;;;;;;;5.03;4.15;;;;;;;;;;4950607;28;20039;-76
2024/04/02 01:00:25;;;;;;;11.07;6.95;;;;;;;;;;4965583;28;20033;-76
2024/04/02 01:03:03;;;;;;;4.60;4.30;;;;;;;;;;5008893;28;20038;-74
2024/04/02 01:05:43;;;;;;;11.40;3.72;;;;;;;;;;5053512;28;20120;-74
2024/04/02 01:08:33;;;;;;;5.80;3.03;;;;;;;;;;5021997;28;20132;-73
2024/04/02 01:10:59;;;;;;;4.68;3.03;;;;;;;;;;5006318;28;20135;-74
2024/04/02 01:13:48;;;;;;;4.15;2.78;;;;;;;;;;4943818;28;20053;-72
2024/04/02 01:16:21;;;;;;;6.22;4.20;;;;;;;;;;4985867;28;20053;-73
2024/04/02 01:18:52;;;;;;;4.63;3.25;;;;;;;;;;5020622;28;20045;-74
2024/04/02 01:21:32;;;;;;;2.78;2.58;;;;;;;;;;5012579;28;20128;-73
2024/04/02 01:24:38;;;;;;;6.45;4.70;;;;;;;;;;5011132;28;20112;-73
2024/04/02 01:27:07;;;;;;;2.55;2.35;;;;;;;;;;5017076;28;20431;-73
2024/04/02 01:29:51;;;;;;;3.65;3.35;;;;;;;;;;5024496;28;20025;-73
2024/04/02 01:32:41;;;;;;;9.52;3.50;;;;;;;;;;5009622;28;20052;-75
2024/04/02 01:35:35;;;;;;;14.63;2.75;;;;;;;;;;5014277;28;20170;-74
2024/04/02 01:38:20;;;;;;;4.72;4.22;;;;;;;;;;5024564;28;20068;-74
2024/04/02 01:40:49;;;;;;;5.88;3.53;;;;;;;;;;5005430;28;20064;-76
2024/04/02 01:43:41;;;;;;;7.53;3.25;;;;;;;;;;4985651;28;20042;-75
2024/04/02 01:46:14;;;;;;;3.38;2.38;;;;;;;;;;5003812;28;20041;-75
2024/04/02 01:48:59;;;;;;;20.63;6.05;;;;;;;;;;5006392;28;20060;-73
2024/04/02 01:51:36;;;;;;;2.65;2.45;;;;;;;;;;5041140;28;20112;-74
2024/04/02 01:54:26;;;;;;;2.92;2.63;;;;;;;;;;5012992;28;20055;-74
2024/04/02 01:57:12;;;;;;;7.03;5.00;;;;;;;;;;4997033;28;20076;-73
2024/04/02 01:59:54;;;;;;;24.27;3.88;;;;;;;;;;5043695;28;20028;-75
2024/04/02 02:02:40;;;;;;;5.07;3.90;;;;;;;;;;5030269;28;20572;-74
2024/04/02 02:05:22;;;;;;;3.55;2.92;;;;;;;;;;5015124;28;20136;-74
2024/04/02 02:08:14;;;;;;;10.20;4.13;;;;;;;;;;5024793;28;20037;-75
2024/04/02 02:11:13;;;;;;;18.60;3.42;;;;;;;;;;4990913;28;20047;-75
2024/04/02 02:14:03;;;;;;;12.50;5.47;;;;;;;;;;4951363;28;20054;-74
2024/04/02 02:16:52;;;;;;;6.40;4.05;;;;;;;;;;4988149;28;20046;-75
2024/04/02 02:19:38;;;;;;;10.38;7.93;;;;;;;;;;4923229;28;20046;-74
2024/04/02 02:22:35;;;;;;;2.55;2.35;;;;;;;;;;4952104;28;20490;-73
2024/04/02 02:25:05;;;;;;;4.05;2.13;;;;;;;;;;4974590;28;20038;-75
2024/04/02 02:28:17;;;;;;;2.05;1.55;;;;;;;;;;4966839;28;20111;-73
2024/04/02 02:30:48;;;;;;;3.25;2.08;;;;;;;;;;4974105;28;20545;-75
2024/04/02 02:33:31;;;;;;;4.40;3.28;;;;;;;;;;4991576;28;20045;-75
2024/04/02 02:36:06;;;;;;;6.45;3.75;;;;;;;;;;4946200;28;20029;-74
2024/04/02 02:38:38;;;;;;;4.38;3.42;;;;;;;;;;5015122;28;20886;-74
2024/04/02 02:41:26;;;;;;;4.63;3.05;;;;;;;;;;4986311;28;20410;-74
2024/04/02 02:44:26;;;;;;;5.05;4.50;;;;;;;;;;5008190;28;20030;-74
2024/04/02 02:47:13;;;;;;;8.75;5.35;;;;;;;;;;5003043;28;20046;-74
2024/04/02 05:09:40;;;;;;;3.03;0.80;;;;;;;;;;5091668;27;21853;-76
2024/04/02 05:12:06;;;;;;;14.90;1.52;;;;;;;;;;5075677;28;20128;-77
2024/04/02 05:14:31;;;;;;;4.72;2.00;;;;;;;;;;5079452;28;20028;-76
2024/04/02 05:16:56;;;;;;;2.13;1.92;;;;;;;;;;5080643;28;20169;-76
2024/04/02 05:19:22;;;;;;;12.82;3.60;;;;;;;;;;5080585;28;20049;-76
2024/04/02 05:21:47;;;;;;;3.70;1.65;;;;;;;;;;5078673;28;20048;-77
2024/04/02 05:24:12;;;;;;;12.55;4.22;;;;;;;;;;5079852;28;20051;-77
2024/04/02 05:26:38;;;;;;;1.15;1.02;;;;;;;;;;5080015;28;20787;-77
2024/04/02 05:29:03;;;;;;;1.23;1.13;;;;;;;;;;5078166;28;20075;-77
2024/04/02 05:31:29;;;;;;;1.88;1.02;;;;;;;;;;5078352;28;20517;-78
2024/04/02 05:33:54;;;;;;;3.38;2.60;;;;;;;;;;5076565;28;20036;-77
2024/04/02 05:36:19;;;;;;;3.58;2.60;;;;;;;;;;5080700;28;20052;-78
2024/04/02 05:38:45;;;;;;;3.03;2.47;;;;;;;;;;5077335;28;20040;-76
2024/04/02 05:41:11;;;;;;;2.08;1.48;;;;;;;;;;5072748;28;21925;-74
2024/04/02 05:43:36;;;;;;;18.70;4.75;;;;;;;;;;5078666;28;20048;-73
2024/04/02 05:46:02;;;;;;;4.50;1.48;;;;;;;;;;5073246;28;20484;-74
2024/04/02 05:48:27;;;;;;;2.05;1.88;;;;;;;;;;5075254;28;20036;-75
2024/04/02 05:50:56;;;;;;;2.63;2.42;;;;;;;;;;5078282;28;20036;-74
2024/04/02 05:53:21;;;;;;;3.17;2.53;;;;;;;;;;5070334;28;20436;-73
2024/04/02 05:55:47;;;;;;;3.40;2.30;;;;;;;;;;5075536;28;20127;-74
2024/04/02 05:58:12;;;;;;;3.13;2.33;;;;;;;;;;5074933;28;20412;-74
2024/04/02 06:00:38;;;;;;;1.08;1.02;;;;;;;;;;5071266;28;20097;-73
2024/04/02 06:03:03;;;;;;;1.90;1.73;;;;;;;;;;5078521;28;20044;-74
2024/04/02 06:05:29;;;;;;;1.85;1.70;;;;;;;;;;5079846;28;20032;-74
2024/04/02 06:07:57;;;;;;;9.75;6.60;;;;;;;;;;5077311;28;20445;-75
2024/04/02 06:10:22;;;;;;;1.98;1.83;;;;;;;;;;5068426;28;20037;-73
2024/04/02 06:12:49;;;;;;;4.40;3.70;;;;;;;;;;5065466;28;20038;-74
2024/04/02 06:15:14;;;;;;;0.52;0.52;;;;;;;;;;5059634;28;20124;-73
2024/04/02 06:17:40;;;;;;;1.45;1.23;;;;;;;;;;5065834;28;20115;-74
2024/04/02 06:20:05;;;;;;;1.17;1.08;;;;;;;;;;5064453;28;20135;-73
2024/04/02 06:22:32;;;;;;;1.17;0.57;;;;;;;;;;5060278;28;20040;-74
2024/04/02 06:24:58;;;;;;;2.92;2.67;;;;;;;;;;5065218;28;20166;-74
2024/04/02 06:27:23;;;;;;;2.55;2.35;;;;;;;;;;5063451;28;20139;-73
2024/04/02 06:29:49;;;;;;;4.00;2.15;;;;;;;;;;5062127;28;20400;-73
2024/04/02 06:32:14;;;;;;;3.55;1.65;;;;;;;;;;5064274;28;20028;-74
2024/04/02 06:34:39;;;;;;;5.93;2.85;;;;;;;;;;5060665;28;20040;-72
2024/04/02 06:37:05;;;;;;;2.33;2.15;;;;;;;;;;5059244;28;20043;-75
2024/04/02 06:39:30;;;;;;;6.78;2.60;;;;;;;;;;5064838;28;20092;-73
2024/04/02 06:41:56;;;;;;;10.35;2.17;;;;;;;;;;5066269;28;20062;-73
2024/04/02 06:44:21;;;;;;;1.35;1.13;;;;;;;;;;5060349;28;20523;-75
2024/04/02 06:46:48;;;;;;;1.02;1.00;;;;;;;;;;5067190;28;20046;-75
2024/04/02 06:49:13;;;;;;;11.75;2.70;;;;;;;;;;5064942;28;20051;-73
2024/04/02 06:51:39;;;;;;;4.40;2.85;;;;;;;;;;5050139;28;20057;-73
2024/04/02 06:54:04;;;;;;;0.75;0.60;;;;;;;;;;5054531;28;20045;-75
2024/04/02 06:56:30;;;;;;;3.40;2.88;;;;;;;;;;5061525;28;20032;-74
2024/04/02 06:58:55;;;;;;;1.05;0.73;;;;;;;;;;5056058;28;20061;-74
2024/04/02 07:01:21;;;;;;;1.35;0.95;;;;;;;;;;5042545;28;20763;-73
2024/04/02 07:03:46;;;;;;;1.25;0.98;;;;;;;;;;5055387;28;20047;-75
2024/04/02 07:06:12;;;;;;;3.40;2.75;;;;;;;;;;5066729;28;20045;-75
2024/04/02 07:08:37;;;;;;;0.70;0.70;;;;;;;;;;5066846;28;20497;-73
2024/04/02 07:11:04;;;;;;;1.63;1.30;;;;;;;;;;5045563;28;20040;-75
2024/04/02 07:13:30;;;;;;;1.65;1.45;;;;;;;;;;5046415;28;20041;-74
2024/04/02 07:15:55;;;;;;;3.33;2.50;;;;;;;;;;5051284;28;20052;-73
2024/04/02 07:18:21;;;;;;;22.55;2.05;;;;;;;;;;5049254;28;20492;-73
2024/04/02 07:21:09;;;;;;;1.58;1.20;;;;;;;;;;5053540;28;20036;-74
2024/04/02 07:23:36;;;;;;;3.75;2.22;;;;;;;;;;5064754;28;20055;-74
2024/04/02 07:26:02;;;;;;;0.50;0.50;;;;;;;;;;5062966;28;20047;-74
2024/04/02 07:28:27;;;;;;;2.47;1.67;;;;;;;;;;5059108;28;20032;-74
2024/04/02 07:30:53;;;;;;;4.18;3.58;;;;;;;;;;5062024;28;20048;-75
2024/04/02 07:33:19;;;;;;;1.92;1.75;;;;;;;;;;5056626;28;20098;-73
2024/04/02 07:35:44;;;;;;;7.28;2.97;;;;;;;;;;5065684;28;20590;-73
2024/04/02 07:38:10;;;;;;;3.03;2.30;;;;;;;;;;5066524;28;20048;-73
2024/04/02 07:40:36;;;;;;;4.47;2.88;;;;;;;;;;5063480;28;20041;-73
2024/04/02 07:43:03;;;;;;;11.05;3.72;;;;;;;;;;5056792;28;20041;-75
2024/04/02 07:45:32;;;;;;;18.50;3.05;;;;;;;;;;5064028;28;20048;-74
2024/04/02 07:47:57;;;;;;;0.90;0.60;;;;;;;;;;5064831;28;20078;-74
2024/04/02 07:50:23;;;;;;;1.95;1.85;;;;;;;;;;5067774;28;20060;-74
2024/04/02 07:52:50;;;;;;;3.17;2.88;;;;;;;;;;5065642;28;20036;-76
2024/04/02 07:55:15;;;;;;;6.68;1.70;;;;;;;;;;5062656;28;20033;-73
2024/04/02 07:57:41;;;;;;;5.25;2.10;;;;;;;;;;5062254;28;20109;-73
2024/04/02 08:00:07;;;;;;;2.72;0.57;;;;;;;;;;5064924;28;20036;-75
2024/04/02 08:02:33;;;;;;;11.85;2.63;;;;;;;;;;5061566;28;20139;-73
2024/04/02 08:04:58;;;;;;;5.70;4.28;;;;;;;;;;5063826;28;20162;-73
2024/04/02 08:07:23;;;;;;;3.38;1.33;;;;;;;;;;5060909;28;20040;-73
2024/04/02 08:09:49;;;;;;;1.25;1.15;;;;;;;;;;5061688;28;20754;-75
2024/04/02 08:12:14;;;;;;;2.28;1.80;;;;;;;;;;5063039;28;20128;-74
2024/04/02 08:14:40;;;;;;;1.73;1.02;;;;;;;;;;5061604;28;20029;-74
2024/04/02 08:17:05;;;;;;;1.15;0.93;;;;;;;;;;5064952;28;20555;-74
2024/04/02 08:19:30;;;;;;;2.75;1.67;;;;;;;;;;5063572;28;20044;-74
2024/04/02 08:21:56;;;;;;;1.30;1.20;;;;;;;;;;5061239;28;20032;-74
2024/04/02 08:24:24;;;;;;;4.35;2.38;;;;;;;;;;5059563;28;20097;-72
2024/04/02 08:26:49;;;;;;;2.42;2.05;;;;;;;;;;5058693;28;20120;-72
2024/04/02 08:29:14;;;;;;;0.47;0.40;;;;;;;;;;5061508;28;20423;-76
2024/04/02 08:31:40;;;;;;;0.43;0.38;;;;;;;;;;5058114;28;20044;-73
2024/04/02 08:34:05;;;;;;;1.00;0.68;;;;;;;;;;5065053;28;20055;-73
2024/04/02 08:36:30;;;;;;;4.47;1.27;;;;;;;;;;5061649;28;20097;-75
2024/04/02 08:38:56;;;;;;;0.75;0.25;;;;;;;;;;5063180;28;20063;-75
2024/04/02 08:41:24;;;;;;;1.15;1.05;;;;;;;;;;5056141;28;20031;-73
2024/04/02 08:43:50;;;;;;;1.33;1.23;;;;;;;;;;5062654;28;20037;-75
2024/04/02 08:46:15;;;;;;;0.80;0.80;;;;;;;;;;5062142;28;20105;-74
2024/04/02 08:48:41;;;;;;;0.13;0.13;;;;;;;;;;5063517;28;20044;-73
2024/04/02 08:51:07;;;;;;;0.95;0.95;;;;;;;;;;5058862;28;20384;-75
2024/04/02 08:53:34;;;;;;;0.20;0.20;;;;;;;;;;5064590;28;20036;-74
2024/04/02 08:55:59;;;;;;;3.28;1.50;;;;;;;;;;5060326;28;20032;-73
2024/04/02 08:58:26;;;;;;;0.65;0.47;;;;;;;;;;5063955;28;20171;-73
2024/04/02 09:00:51;;;;;;;1.67;1.00;;;;;;;;;;5061828;28;20078;-73
2024/04/02 09:03:19;;;;;;;0.50;0.50;;;;;;;;;;5064222;28;20140;-74
2024/04/02 09:05:44;;;;;;;0.10;0.10;;;;;;;;;;5063214;28;20131;-74
2024/04/02 09:08:12;;;;;;;4.22;3.90;;;;;;;;;;5056967;28;20059;-74
2024/04/02 09:10:37;;;;;;;2.03;0.73;;;;;;;;;;5058241;28;20047;-73
2024/04/02 09:13:03;;;;;;;1.42;1.33;;;;;;;;;;5059463;28;20415;-75
2024/04/02 09:15:28;;;;;;;0.60;0.50;;;;;;;;;;5056263;28;20055;-76
2024/04/02 09:17:54;;;;;;;1.25;1.17;;;;;;;;;;5056054;28;20082;-72
2024/04/02 09:20:19;;;;;;;1.60;1.50;;;;;;;;;;5060418;28;20118;-74
2024/04/02 09:22:45;;;;;;;2.40;0.55;;;;;;;;;;5058431;28;20037;-75
2024/04/02 09:25:11;;;;;;;0.10;0.10;;;;;;;;;;5058352;28;20036;-74
2024/04/02 09:27:37;;;;;;;0.20;0.20;;;;;;;;;;5057411;28;20049;-75
2024/04/02 09:30:02;;;;;;;1.20;1.20;;;;;;;;;;5059579;28;20658;-74
2024/04/02 09:32:28;;;;;;;0.30;0.30;;;;;;;;;;5061846;28;20446;-73
2024/04/02 09:34:54;;;;;;;3.25;1.85;;;;;;;;;;5057391;28;20475;-73
2024/04/02 09:37:35;;;;;;;0.20;0.20;;;;;;;;;;5057874;28;20048;-74
2024/04/02 09:40:04;;;;;;;3.55;1.10;;;;;;;;;;5056549;28;20521;-74
2024/04/02 09:42:31;;;;;;;0.35;0.32;;;;;;;;;;5057353;28;20044;-75
2024/04/02 09:44:58;;;;;;;0.85;0.47;;;;;;;;;;5055431;28;20037;-74
2024/04/02 09:47:24;;;;;;;0.15;0.15;;;;;;;;;;5062664;28;20032;-73
2024/04/02 09:49:52;;;;;;;0.20;0.20;;;;;;;;;;5063482;28;20044;-75
2024/04/02 09:52:17;;;;;;;7.55;6.85;;;;;;;;;;5055993;28;20044;-75
2024/04/02 09:54:43;;;;;;;0.20;0.20;;;;;;;;;;5062849;28;20036;-75
2024/04/02 09:57:09;;;;;;;1.10;0.30;;;;;;;;;;5057958;28;20053;-72
2024/04/02 09:59:36;;;;;;;1.05;0.75;;;;;;;;;;5063746;28;20024;-75
2024/04/02 10:02:02;;;;;;;0.22;0.20;;;;;;;;;;5065652;28;20037;-73
2024/04/02 10:04:28;;;;;;;0.35;0.35;;;;;;;;;;5066788;28;20044;-73
2024/04/02 10:06:56;;;;;;;1.55;0.52;;;;;;;;;;5063780;28;20037;-72
2024/04/02 10:09:22;;;;;;;0.80;0.63;;;;;;;;;;5061355;28;20040;-75
2024/04/02 10:11:47;;;;;;;0.95;0.95;;;;;;;;;;5062838;28;20425;-74
2024/04/02 10:14:14;;;;;;;0.25;0.25;;;;;;;;;;5065174;28;20470;-74
2024/04/02 10:16:40;;;;;;;0.10;0.10;;;;;;;;;;5065940;28;20051;-73
2024/04/02 10:19:10;;;;;;;1.38;1.27;;;;;;;;;;5064088;28;20155;-76
2024/04/02 10:21:35;;;;;;;0.10;0.10;;;;;;;;;;5066103;28;20048;-74
2024/04/02 10:24:01;;;;;;;0.20;0.20;;;;;;;;;;5062269;28;20404;-73
2024/04/02 10:26:30;;;;;;;0.30;0.30;;;;;;;;;;5065413;28;20048;-75
2024/04/02 10:28:55;;;;;;;0.20;0.20;;;;;;;;;;5059020;28;20051;-74
2024/04/02 10:31:21;;;;;;;0.15;0.15;;;;;;;;;;5063234;28;20044;-74
2024/04/02 10:33:50;;;;;;;0.50;0.20;;;;;;;;;;5063449;28;20741;-75
2024/04/02 10:36:16;;;;;;;2.50;0.90;;;;;;;;;;5064995;28;20052;-74
2024/04/02 10:38:42;;;;;;;14.07;1.95;;;;;;;;;;5064020;28;20044;-77
2024/04/02 10:41:08;;;;;;;0.20;0.20;;;;;;;;;;5062500;28;20020;-73
2024/04/02 10:43:33;;;;;;;0.20;0.20;;;;;;;;;;5059593;28;20519;-74
2024/04/02 10:45:58;;;;;;;0.57;0.57;;;;;;;;;;5061069;28;20041;-75
2024/04/02 10:48:24;;;;;;;0.75;0.57;;;;;;;;;;5064636;28;20085;-74
2024/04/02 10:50:53;;;;;;;0.30;0.30;;;;;;;;;;5063179;28;20033;-74
2024/04/02 10:53:18;;;;;;;0.20;0.20;;;;;;;;;;5061835;28;20036;-74
2024/04/02 10:55:43;;;;;;;0.98;0.43;;;;;;;;;;5060593;28;20044;-76
2024/04/02 10:58:10;;;;;;;10.00;2.88;;;;;;;;;;5061744;28;20444;-77
2024/04/02 11:00:35;;;;;;;0.38;0.35;;;;;;;;;;5063926;28;20564;-73
2024/04/02 11:03:01;;;;;;;0.93;0.73;;;;;;;;;;5053304;28;20046;-74
2024/04/02 11:05:26;;;;;;;0.20;0.20;;;;;;;;;;5041500;28;20057;-77
2024/04/02 11:07:52;;;;;;;1.77;1.55;;;;;;;;;;5036616;28;20049;-74
2024/04/02 11:10:17;;;;;;;0.35;0.35;;;;;;;;;;5049214;28;20053;-75
2024/04/02 11:12:43;;;;;;;0.10;0.10;;;;;;;;;;5049551;28;20052;-74
2024/04/02 11:15:11;;;;;;;0.35;0.35;;;;;;;;;;5064322;28;20086;-74
2024/04/02 11:17:37;;;;;;;0.10;0.10;;;;;;;;;;5062953;28;20499;-75
2024/04/02 11:20:09;;;;;;;0.20;0.20;;;;;;;;;;5059324;28;20286;-74
2024/04/02 11:25:19;;;;;;;0.10;0.10;;;;;;;;;;5066348;28;20071;-74
2024/04/02 11:27:44;;;;;;;6.85;3.10;;;;;;;;;;5064443;28;20079;-74
2024/04/02 11:30:10;;;;;;;0.25;0.25;;;;;;;;;;5061420;28;20115;-73
2024/04/02 11:32:36;;;;;;;0.20;0.20;;;;;;;;;;5062303;28;20078;-74
2024/04/02 11:35:01;;;;;;;0.10;0.10;;;;;;;;;;5059646;28;20044;-73
2024/04/02 11:37:27;;;;;;;0.20;0.20;;;;;;;;;;5062143;28;20158;-73
2024/04/02 11:39:53;;;;;;;0.20;0.20;;;;;;;;;;5055713;28;20032;-74
2024/04/02 11:42:19;;;;;;;0.20;0.20;;;;;;;;;;5059357;28;20055;-72
2024/04/02 11:44:44;;;;;;;0.20;0.20;;;;;;;;;;5061867;28;20071;-77
2024/04/02 11:47:12;;;;;;;0.20;0.20;;;;;;;;;;5060354;28;20055;-73
2024/04/02 11:49:38;;;;;;;0.20;0.20;;;;;;;;;;5059162;28;20059;-74
2024/04/02 11:52:03;;;;;;;0.10;0.10;;;;;;;;;;5056169;28;20066;-75
2024/04/02 11:54:29;;;;;;;0.20;0.20;;;;;;;;;;5064763;28;20056;-75
2024/04/02 12:02:22;;;;;;;0.32;0.32;;;;;;;;;;5062727;28;20040;-73
2024/04/02 12:04:48;;;;;;;0.10;0.10;;;;;;;;;;5059787;28;20044;-73
2024/04/02 12:07:13;;;;;;;0.10;0.10;;;;;;;;;;5061153;28;20044;-75
2024/04/02 12:09:40;;;;;;;0.20;0.20;;;;;;;;;;5062378;28;20226;-73
2024/04/02 12:12:06;;;;;;;0.40;0.30;;;;;;;;;;5065986;28;20043;-74
2024/04/02 12:14:31;;;;;;;0.52;0.40;;;;;;;;;;5065271;28;20327;-73
2024/04/02 12:16:56;;;;;;;1.23;1.08;;;;;;;;;;5059955;28;20041;-73
2024/04/02 12:19:22;;;;;;;0.10;0.10;;;;;;;;;;5064202;28;20056;-73
2024/04/02 12:21:49;;;;;;;0.47;0.47;;;;;;;;;;5062523;28;20040;-72
2024/04/02 12:24:14;;;;;;;0.10;0.10;;;;;;;;;;5066577;28;20059;-74
2024/04/02 12:26:40;;;;;;;2.88;2.63;;;;;;;;;;5066825;28;20390;-75
2024/04/02 12:29:05;;;;;;;0.10;0.10;;;;;;;;;;5060582;28;20045;-75
2024/04/02 12:31:30;;;;;;;0.65;0.65;;;;;;;;;;5063590;28;20036;-74
2024/04/02 12:33:56;;;;;;;0.10;0.10;;;;;;;;;;5050576;28;20036;-74
2024/04/02 12:36:21;;;;;;;0.30;0.30;;;;;;;;;;5042294;28;20041;-74
2024/04/02 12:38:47;;;;;;;0.40;0.40;;;;;;;;;;5045884;28;20450;-75
2024/04/02 12:41:12;;;;;;;0.10;0.10;;;;;;;;;;5064698;28;20172;-74
2024/04/02 12:43:37;;;;;;;0.20;0.20;;;;;;;;;;5063918;28;20696;-75
2024/04/02 12:46:03;;;;;;;0.20;0.20;;;;;;;;;;5052905;28;20119;-75
2024/04/02 12:48:28;;;;;;;0.10;0.10;;;;;;;;;;5050379;28;20530;-72
2024/04/02 12:50:54;;;;;;;0.47;0.45;;;;;;;;;;5065706;28;20059;-74
2024/04/02 12:53:23;;;;;;;0.10;0.10;;;;;;;;;;5064870;28;20035;-75
2024/04/02 12:55:48;;;;;;;0.10;0.10;;;;;;;;;;5063470;28;20041;-73
2024/04/02 12:58:14;;;;;;;0.10;0.10;;;;;;;;;;5061921;28;20407;-75
2024/04/02 13:00:40;;;;;;;0.25;0.25;;;;;;;;;;5063840;28;20499;-74
2024/04/02 13:03:05;;;;;;;0.25;0.17;;;;;;;;;;5064793;28;20089;-74
2024/04/02 13:05:34;;;;;;;0.65;0.65;;;;;;;;;;5063890;28;20503;-74
2024/04/02 13:08:00;;;;;;;2.63;1.75;;;;;;;;;;5059167;28;20080;-73
2024/04/02 13:10:25;;;;;;;0.10;0.10;;;;;;;;;;5056630;28;20127;-73
2024/04/02 13:12:51;;;;;;;0.32;0.20;;;;;;;;;;5062084;28;20040;-78
2024/04/02 13:15:16;;;;;;;1.45;1.38;;;;;;;;;;5064632;28;20543;-74
2024/04/02 13:17:41;;;;;;;0.55;0.20;;;;;;;;;;5064255;28;20122;-74
2024/04/02 13:20:08;;;;;;;0.50;0.50;;;;;;;;;;5062770;28;20036;-74
2024/04/02 13:22:34;;;;;;;0.10;0.10;;;;;;;;;;5038846;28;20049;-74
2024/04/02 13:24:59;;;;;;;1.45;0.95;;;;;;;;;;5056590;28;20502;-74
2024/04/02 13:27:24;;;;;;;0.20;0.20;;;;;;;;;;5069993;28;20107;-75
2024/04/02 13:29:51;;;;;;;0.47;0.47;;;;;;;;;;5064107;28;20025;-75
2024/04/02 13:32:17;;;;;;;0.30;0.30;;;;;;;;;;5051288;28;20029;-75
2024/04/02 13:34:43;;;;;;;0.20;0.20;;;;;;;;;;5053538;28;20087;-73
2024/04/02 13:37:10;;;;;;;0.20;0.20;;;;;;;;;;5056114;28;20056;-73
2024/04/02 13:39:36;;;;;;;0.77;0.55;;;;;;;;;;5057227;28;20024;-74
2024/04/02 13:42:02;;;;;;;0.40;0.40;;;;;;;;;;5068385;28;20036;-74
2024/04/02 13:44:28;;;;;;;0.47;0.47;;;;;;;;;;5066358;28;20021;-76
2024/04/02 13:46:54;;;;;;;0.63;0.63;;;;;;;;;;5062642;28;20388;-75
2024/04/02 13:49:19;;;;;;;0.95;0.88;;;;;;;;;;5068116;28;20488;-74
2024/04/02 13:51:44;;;;;;;1.95;1.67;;;;;;;;;;5068551;28;20484;-73
2024/04/02 13:54:10;;;;;;;0.43;0.43;;;;;;;;;;5062724;28;20867;-73
2024/04/02 13:56:35;;;;;;;0.70;0.47;;;;;;;;;;5063971;28;20020;-74
2024/04/02 13:59:01;;;;;;;0.22;0.22;;;;;;;;;;5058295;28;20587;-77
2024/04/02 14:01:26;;;;;;;0.40;0.40;;;;;;;;;;5067978;28;20044;-74
2024/04/02 14:03:51;;;;;;;0.30;0.30;;;;;;;;;;5066761;28;20048;-72
2024/04/02 14:06:18;;;;;;;0.20;0.20;;;;;;;;;;5065749;28;20068;-75
2024/04/02 14:08:43;;;;;;;0.30;0.30;;;;;;;;;;5065397;28;20045;-75
2024/04/02 14:11:18;;;;;;;2.90;2.28;;;;;;;;;;5062478;28;20395;-74
2024/04/02 14:13:44;;;;;;;1.77;1.52;;;;;;;;;;5062627;28;20127;-75
2024/04/02 14:16:13;;;;;;;0.55;0.50;;;;;;;;;;5067381;28;20055;-74
2024/04/02 14:18:38;;;;;;;3.58;3.33;;;;;;;;;;5068051;28;20041;-75
2024/04/02 14:21:04;;;;;;;0.68;0.38;;;;;;;;;;5063697;28;20047;-75
2024/04/02 14:23:31;;;;;;;2.38;1.25;;;;;;;;;;5067648;28;20132;-75
2024/04/02 14:25:57;;;;;;;0.30;0.30;;;;;;;;;;5064475;28;20112;-73
2024/04/02 14:28:23;;;;;;;2.08;1.88;;;;;;;;;;5063782;28;20036;-76
2024/04/02 14:30:49;;;;;;;0.43;0.32;;;;;;;;;;5062442;28;20037;-74
2024/04/02 14:33:14;;;;;;;0.20;0.20;;;;;;;;;;5065397;28;20051;-75
2024/04/02 14:35:47;;;;;;;0.40;0.40;;;;;;;;;;5064970;28;20016;-76
2024/04/02 14:38:12;;;;;;;1.95;1.20;;;;;;;;;;5066416;28;20040;-73
2024/04/02 14:40:38;;;;;;;0.40;0.40;;;;;;;;;;5065731;28;20628;-76
2024/04/02 14:43:04;;;;;;;1.95;1.75;;;;;;;;;;5063698;28;20044;-73
2024/04/02 14:45:29;;;;;;;0.80;0.80;;;;;;;;;;5063470;28;20367;-74
2024/04/02 14:47:55;;;;;;;0.20;0.20;;;;;;;;;;5065612;28;20032;-74
2024/04/02 14:50:20;;;;;;;0.75;0.43;;;;;;;;;;5066572;28;20498;-74
2024/04/02 14:52:45;;;;;;;2.60;0.95;;;;;;;;;;5067204;28;20127;-74
2024/04/02 14:55:11;;;;;;;1.30;0.82;;;;;;;;;;5075362;28;20045;-74
2024/04/02 14:57:36;;;;;;;2.40;1.27;;;;;;;;;;5067170;28;20055;-73
2024/04/02 15:00:02;;;;;;;0.45;0.43;;;;;;;;;;5067760;28;20037;-76
2024/04/02 15:02:27;;;;;;;0.50;0.50;;;;;;;;;;5067670;28;20028;-74
2024/04/02 15:04:53;;;;;;;0.30;0.30;;;;;;;;;;5065383;28;20579;-74
2024/04/02 15:07:18;;;;;;;2.22;1.95;;;;;;;;;;5065024;28;20040;-73
2024/04/02 15:09:43;;;;;;;0.38;0.38;;;;;;;;;;5065496;28;20052;-75
2024/04/02 15:12:10;;;;;;;0.68;0.50;;;;;;;;;;5067025;28;20088;-74
2024/04/02 15:14:35;;;;;;;0.95;0.65;;;;;;;;;;5066257;28;20037;-73
2024/04/02 15:17:00;;;;;;;0.85;0.50;;;;;;;;;;5065193;28;20032;-74
2024/04/02 15:19:26;;;;;;;1.27;1.17;;;;;;;;;;5066820;28;20128;-75
2024/04/02 15:21:51;;;;;;;1.10;0.98;;;;;;;;;;5064185;28;20029;-76
2024/04/02 15:24:17;;;;;;;1.23;1.13;;;;;;;;;;5066518;28;20040;-74
2024/04/02 15:26:42;;;;;;;0.70;0.70;;;;;;;;;;5065575;28;20032;-73
2024/04/02 15:29:08;;;;;;;3.13;1.90;;;;;;;;;;5067546;28;20478;-73
2024/04/02 15:31:33;;;;;;;2.88;1.85;;;;;;;;;;5066059;28;20852;-74
2024/04/02 15:33:59;;;;;;;0.70;0.70;;;;;;;;;;5065269;28;20114;-72
2024/04/02 15:36:24;;;;;;;2.60;1.65;;;;;;;;;;5065006;28;20784;-74
2024/04/02 15:38:51;;;;;;;0.38;0.38;;;;;;;;;;5065517;28;20460;-75
2024/04/02 15:41:17;;;;;;;0.60;0.45;;;;;;;;;;5062881;28;20019;-76
2024/04/02 15:43:44;;;;;;;0.47;0.45;;;;;;;;;;5063124;28;20044;-73
2024/04/02 15:46:10;;;;;;;1.30;1.20;;;;;;;;;;5066043;28;20396;-74
2024/04/02 15:48:35;;;;;;;0.95;0.77;;;;;;;;;;5066016;28;20044;-73
2024/04/02 15:51:00;;;;;;;1.50;1.30;;;;;;;;;;5065221;28;20044;-75
2024/04/02 15:53:27;;;;;;;0.50;0.40;;;;;;;;;;5066383;28;20032;-81
2024/04/02 15:55:59;;;;;;;2.60;1.77;;;;;;;;;;5064795;28;20455;-80
2024/04/02 15:58:25;;;;;;;0.57;0.57;;;;;;;;;;5059359;28;20045;-78
2024/04/02 16:01:12;;;;;;;0.52;0.52;;;;;;;;;;5062669;28;20553;-79
2024/04/02 16:03:40;;;;;;;1.23;1.13;;;;;;;;;;5062191;28;20036;-80
2024/04/02 16:06:09;;;;;;;1.15;0.95;;;;;;;;;;5062955;28;20044;-79
2024/04/02 16:08:35;;;;;;;0.75;0.63;;;;;;;;;;5066552;28;20047;-79
2024/04/02 16:11:01;;;;;;;4.50;2.15;;;;;;;;;;5063616;28;20032;-82
2024/04/02 16:13:26;;;;;;;0.88;0.80;;;;;;;;;;5066267;28;20041;-80
2024/04/02 16:16:01;;;;;;;2.85;2.63;;;;;;;;;;5062441;28;20032;-79
2024/04/02 16:18:31;;;;;;;1.75;1.65;;;;;;;;;;5065085;28;20093;-83
2024/04/02 16:20:57;;;;;;;3.97;1.38;;;;;;;;;;5064640;28;20058;-81
2024/04/02 16:23:23;;;;;;;0.82;0.82;;;;;;;;;;5066780;28;20534;-83
2024/04/02 16:25:49;;;;;;;2.33;2.08;;;;;;;;;;5059277;28;20082;-84
2024/04/02 16:28:15;;;;;;;1.08;0.90;;;;;;;;;;5066369;28;20040;-82
2024/04/02 16:30:40;;;;;;;0.55;0.55;;;;;;;;;;5069978;28;20051;-83
2024/04/02 16:33:05;;;;;;;1.40;1.20;;;;;;;;;;5064117;28;20741;-83
2024/04/02 16:35:31;;;;;;;2.75;1.25;;;;;;;;;;5062123;28;20556;-82
2024/04/02 16:38:03;;;;;;;0.60;0.60;;;;;;;;;;5066301;28;20137;-81
2024/04/02 16:40:29;;;;;;;1.60;1.00;;;;;;;;;;5063102;28;20073;-85
2024/04/02 16:42:54;;;;;;;1.88;1.50;;;;;;;;;;5064571;28;20029;-81
2024/04/02 16:45:20;;;;;;;2.70;2.50;;;;;;;;;;5068634;28;20044;-80
2024/04/02 16:47:46;;;;;;;0.45;0.45;;;;;;;;;;5067260;28;20398;-79
2024/04/02 16:50:12;;;;;;;1.23;0.98;;;;;;;;;;5071935;28;20059;-83
2024/04/02 16:52:37;;;;;;;2.03;1.83;;;;;;;;;;5067792;28;20032;-81
2024/04/02 16:55:03;;;;;;;1.02;0.93;;;;;;;;;;5067403;28;20156;-76
2024/04/02 16:57:29;;;;;;;0.85;0.75;;;;;;;;;;5065799;28;21519;-76
2024/04/02 16:59:54;;;;;;;1.30;0.63;;;;;;;;;;5065614;28;20020;-76
2024/04/02 17:02:19;;;;;;;0.68;0.60;;;;;;;;;;5065387;28;20460;-76
2024/04/02 17:04:45;;;;;;;0.95;0.38;;;;;;;;;;5065693;28;20041;-75
2024/04/02 17:07:10;;;;;;;0.82;0.82;;;;;;;;;;5063624;28;20395;-75
2024/04/02 17:09:35;;;;;;;0.73;0.52;;;;;;;;;;5064628;28;20056;-76
2024/04/02 17:12:01;;;;;;;1.38;1.08;;;;;;;;;;5062712;28;20086;-76
2024/04/02 17:14:26;;;;;;;0.32;0.32;;;;;;;;;;5065974;28;20055;-75
2024/04/02 17:16:52;;;;;;;1.17;0.63;;;;;;;;;;5065393;28;20040;-76
2024/04/02 17:19:19;;;;;;;1.58;1.27;;;;;;;;;;5064854;28;20500;-76
2024/04/02 17:21:44;;;;;;;0.45;0.45;;;;;;;;;;5057118;28;20044;-75
2024/04/02 17:24:10;;;;;;;0.77;0.77;;;;;;;;;;5064758;28;20415;-74